Aérodrome :







RETROUVEZ-NOUS SUR...

 
LOGIN :

S'inscrire | Disclaimer

   EN    FR    IT 

 









Légende :    VFR   VFR Marginal   IFR   IFR Intensif   IFR Très Intensif
Visi : 
Plafond : 
>= 8 km
>= 3000ft
5 à 8 km
1000 à 3000 ft
1500m à 5 km
500 à 1000 ft
800 à 1500m
200 à 500 ft
< 800m
< 200 ft
Symboles :   Orages  Brouillard  Fortes neiges  Fortes précipitations  Vent > 20 kt






- Altitude de l'aérodrome : 215 ft
- Code IATA : MSS


KMSS - Massena International Richards Field

DERNIER METAR :
  • 141153Z AUTO 00000KT 10SM BKN018 OVC070 19/17 A2997 RMK AO2 SLP148 T01940172 10194 20156 51010

METARs EXPIRÉS :
  • 141118Z AUTO 00000KT 10SM SCT030 SCT110 18/17 A2996 RMK AO2 T01830172
  • 141053Z AUTO 22004KT 10SM BKN029 18/17 A2996 RMK AO2 SLP144 T01780167
  • 140953Z AUTO 21003KT 10SM FEW120 16/16 A2994 RMK AO2 SLP138 T01610156
  • 140853Z AUTO 00000KT 10SM BKN120 17/16 A2993 RMK AO2 LTG DSNT NE SLP133 T01670161 53010

TAF KMSS
Valide du 14 à 12h jusqu'au 15 à 12h UTC


141141Z 1412/1512 VRB04KT P6SM SCT035 OVC100
FM141400 35005KT P6SM BKN045
FM142100 03008KT P6SM FEW120
FM150000 VRB04KT P6SM FEW200
FIR KZBW / Amérique du Nord



MET'MAP, la Météo Aéronautique d'un coup d'oeil ! - Copyright ORBIFLY Décembre 2007 - Disclaimer

ORBIFLY MET'MAP TEAM :

Programmation & Développement : Alexandra Zaïnal
Sur une idée originale de : Baudouin d'Aumeries
Assistance à la programmation : Marc-Olivier Méhu
Soutien technique & logistique : Manuel Goepfert

Contact : metmap@orbifly.com




SOURCES & CREDITS :

   NOAA